createdAt,value
2022-07-29T00:00:41.018Z,18.23
2022-07-29T00:03:09.032Z,18.21
2022-07-29T00:05:38.229Z,18.17
2022-07-29T00:08:09.393Z,18.12
2022-07-29T00:10:40.623Z,18.08
2022-07-29T00:13:08.449Z,18.01
2022-07-29T00:15:36.294Z,17.95
2022-07-29T00:18:04.176Z,17.91
2022-07-29T00:20:32.179Z,17.84
2022-07-29T00:23:01.360Z,17.82
2022-07-29T00:25:29.344Z,17.78
2022-07-29T00:27:57.136Z,17.76
2022-07-29T00:30:25.196Z,17.72
2022-07-29T00:32:53.066Z,17.67
2022-07-29T00:35:38.651Z,17.64
2022-07-29T00:38:07.852Z,17.62
2022-07-29T00:40:35.865Z,17.59
2022-07-29T00:43:03.789Z,17.53
2022-07-29T00:45:31.941Z,17.49
2022-07-29T00:47:59.855Z,17.46
2022-07-29T00:50:28.298Z,17.44
2022-07-29T00:52:56.250Z,17.39
2022-07-29T00:55:25.789Z,17.38
2022-07-29T00:57:55.061Z,17.37
2022-07-29T01:00:25.531Z,17.34
2022-07-29T01:02:53.824Z,17.34
2022-07-29T01:05:23.858Z,17.33
2022-07-29T01:07:54.569Z,17.32
2022-07-29T01:10:24.764Z,17.31
2022-07-29T01:12:55.709Z,17.32
2022-07-29T01:15:23.895Z,17.33
2022-07-29T01:18:01.738Z,17.31
2022-07-29T01:20:46.473Z,17.28
2022-07-29T01:23:50.193Z,17.25
2022-07-29T01:26:30.267Z,17.22
2022-07-29T01:29:14.827Z,17.22
2022-07-29T01:32:00.520Z,17.21
2022-07-29T01:34:43.095Z,17.20
2022-07-29T01:37:20.329Z,17.19
2022-07-29T01:39:50.034Z,17.18
2022-07-29T01:42:26.132Z,17.17
2022-07-29T01:44:59.582Z,17.17
2022-07-29T01:47:31.377Z,17.17
2022-07-29T01:50:01.804Z,17.15
2022-07-29T01:52:35.957Z,17.13
2022-07-29T01:55:09.863Z,17.12
2022-07-29T01:57:40.971Z,17.11
2022-07-29T02:00:12.000Z,17.10
2022-07-29T02:02:42.620Z,17.07
2022-07-29T02:05:14.631Z,17.07
2022-07-29T02:07:44.107Z,17.06
2022-07-29T02:10:13.985Z,17.05
2022-07-29T02:12:50.736Z,17.04
2022-07-29T02:15:21.076Z,17.04
2022-07-29T02:17:53.907Z,17.03
2022-07-29T02:20:22.141Z,17.01
2022-07-29T02:22:52.367Z,16.99
2022-07-29T02:25:20.683Z,16.98
2022-07-29T02:27:51.529Z,16.96
2022-07-29T02:30:23.823Z,16.94
2022-07-29T02:32:52.883Z,16.94
2022-07-29T02:35:22.183Z,16.93
2022-07-29T02:38:06.502Z,16.91
2022-07-29T02:40:36.376Z,16.90
2022-07-29T02:43:07.314Z,16.89
2022-07-29T02:45:36.652Z,16.88
2022-07-29T02:48:11.381Z,16.88
2022-07-29T02:50:43.434Z,16.87
2022-07-29T02:53:17.204Z,16.88
2022-07-29T02:55:48.191Z,16.87
2022-07-29T02:58:23.810Z,16.85
2022-07-29T03:00:55.041Z,16.85
2022-07-29T03:03:23.953Z,16.86
2022-07-29T03:05:54.425Z,16.84
2022-07-29T03:08:23.814Z,16.83
2022-07-29T03:10:53.349Z,16.84
2022-07-29T03:13:22.135Z,16.82
2022-07-29T03:15:50.793Z,16.80
2022-07-29T03:18:20.170Z,16.76
2022-07-29T03:20:48.162Z,16.73
2022-07-29T03:23:21.828Z,16.70
2022-07-29T03:25:49.968Z,16.67
2022-07-29T03:28:17.948Z,16.64
2022-07-29T03:30:47.226Z,16.61
2022-07-29T03:33:15.952Z,16.58
2022-07-29T03:35:45.173Z,16.56
2022-07-29T03:38:13.100Z,16.53
2022-07-29T03:40:44.987Z,16.52
2022-07-29T03:43:17.475Z,16.53
2022-07-29T03:45:46.485Z,16.53
2022-07-29T03:48:17.401Z,16.52
2022-07-29T03:50:47.024Z,16.50
2022-07-29T03:53:15.073Z,16.47
2022-07-29T03:55:47.117Z,16.44
2022-07-29T03:58:17.268Z,16.42
2022-07-29T04:00:45.960Z,16.42
2022-07-29T04:03:15.894Z,16.40
2022-07-29T04:05:45.083Z,16.35
2022-07-29T04:08:14.374Z,16.33
2022-07-29T04:10:42.272Z,16.32
2022-07-29T04:13:10.180Z,16.31
2022-07-29T04:15:38.156Z,16.29
2022-07-29T04:18:06.753Z,16.27
2022-07-29T04:20:34.593Z,16.26
2022-07-29T04:23:02.482Z,16.25
2022-07-29T04:25:31.859Z,16.23
2022-07-29T04:28:02.457Z,16.22
2022-07-29T04:30:30.837Z,16.20
2022-07-29T04:32:58.700Z,16.20
2022-07-29T04:35:26.693Z,16.19
2022-07-29T04:37:54.771Z,16.19
2022-07-29T04:40:22.940Z,16.18
2022-07-29T04:42:52.207Z,16.20
2022-07-29T04:45:22.907Z,16.22
2022-07-29T04:47:50.960Z,16.24
2022-07-29T04:50:19.056Z,16.25
2022-07-29T04:52:46.948Z,16.23
2022-07-29T04:55:14.862Z,16.25
2022-07-29T04:57:42.789Z,16.25
2022-07-29T05:00:14.085Z,16.27
2022-07-29T05:02:42.043Z,16.33
2022-07-29T05:05:10.429Z,16.39
2022-07-29T05:07:38.376Z,16.41
2022-07-29T05:10:07.317Z,16.44
2022-07-29T05:12:35.203Z,16.47
2022-07-29T05:15:03.136Z,16.51
2022-07-29T05:17:32.319Z,16.53
2022-07-29T05:20:00.300Z,16.56
2022-07-29T05:22:28.192Z,16.56
2022-07-29T05:24:56.024Z,16.55
2022-07-29T05:27:23.936Z,16.56
2022-07-29T05:29:52.111Z,16.55
2022-07-29T05:32:20.062Z,16.53
2022-07-29T05:34:50.712Z,16.53
2022-07-29T05:37:20.238Z,16.55
2022-07-29T05:39:50.637Z,16.56
2022-07-29T05:42:24.939Z,16.61
2022-07-29T05:44:52.916Z,16.65
2022-07-29T05:47:20.860Z,16.69
2022-07-29T05:49:50.354Z,16.74
2022-07-29T05:52:18.720Z,16.79
2022-07-29T05:54:46.583Z,16.84
2022-07-29T05:57:17.941Z,16.92
2022-07-29T05:59:46.028Z,16.99
2022-07-29T06:02:13.910Z,17.09
2022-07-29T06:04:41.915Z,17.18
2022-07-29T06:07:12.297Z,17.24
2022-07-29T06:09:40.231Z,17.31
2022-07-29T06:12:08.227Z,17.36
2022-07-29T06:14:36.161Z,17.42
2022-07-29T06:17:04.058Z,17.48
2022-07-29T06:19:31.912Z,17.53
2022-07-29T06:21:59.787Z,17.58
2022-07-29T06:24:29.143Z,17.65
2022-07-29T06:26:57.143Z,17.72
2022-07-29T06:29:25.043Z,17.78
2022-07-29T06:31:52.967Z,17.83
2022-07-29T06:34:21.239Z,17.89
2022-07-29T06:36:50.538Z,17.97
2022-07-29T06:39:18.720Z,18.06
2022-07-29T06:41:51.452Z,18.14
2022-07-29T06:44:20.545Z,18.17
2022-07-29T06:46:50.090Z,18.20
2022-07-29T06:49:18.286Z,18.25
2022-07-29T06:51:46.325Z,18.32
2022-07-29T06:54:14.499Z,18.39
2022-07-29T06:56:44.026Z,18.42
2022-07-29T06:59:14.328Z,18.48
2022-07-29T07:01:43.823Z,18.55
2022-07-29T07:04:12.533Z,18.62
2022-07-29T07:06:40.813Z,18.71
2022-07-29T07:09:08.743Z,18.78
2022-07-29T07:11:36.803Z,18.86
2022-07-29T07:14:04.951Z,18.93
2022-07-29T07:16:34.374Z,19.02
2022-07-29T07:19:02.430Z,19.11
2022-07-29T07:21:30.970Z,19.20
2022-07-29T07:23:59.521Z,19.29
2022-07-29T07:26:28.022Z,19.39
2022-07-29T07:28:56.249Z,19.47
2022-07-29T07:31:24.265Z,19.55
2022-07-29T07:33:54.499Z,19.63
2022-07-29T07:36:22.776Z,19.69
2022-07-29T07:38:51.196Z,19.75
2022-07-29T07:41:19.335Z,19.82
2022-07-29T07:43:47.456Z,19.87
2022-07-29T07:46:15.517Z,19.96
2022-07-29T07:48:43.629Z,20.04
2022-07-29T07:51:12.966Z,20.08
2022-07-29T07:53:40.955Z,20.14
2022-07-29T07:56:11.904Z,20.19
2022-07-29T07:58:40.990Z,20.23
2022-07-29T08:01:09.116Z,20.29
2022-07-29T08:03:37.409Z,20.35
2022-07-29T08:06:05.948Z,20.42
2022-07-29T08:08:35.261Z,20.51
2022-07-29T08:11:08.980Z,20.58
2022-07-29T08:13:38.744Z,20.58
2022-07-29T08:16:16.463Z,20.60
2022-07-29T08:18:46.598Z,20.63
2022-07-29T08:21:15.536Z,20.67
2022-07-29T08:23:59.644Z,20.72
2022-07-29T08:26:29.841Z,20.79
2022-07-29T08:28:57.725Z,20.86
2022-07-29T08:31:25.757Z,20.95
2022-07-29T08:33:53.872Z,21.06
2022-07-29T08:36:22.920Z,21.20
2022-07-29T08:38:52.222Z,21.33
2022-07-29T08:41:20.741Z,21.44
2022-07-29T08:43:48.857Z,21.50
2022-07-29T08:46:18.033Z,21.58
2022-07-29T08:48:46.362Z,21.62
2022-07-29T08:51:16.710Z,21.67
2022-07-29T08:53:46.103Z,21.71
2022-07-29T08:56:17.716Z,21.75
2022-07-29T08:58:46.855Z,21.79
2022-07-29T09:01:35.054Z,21.77
2022-07-29T09:04:07.050Z,21.74
2022-07-29T09:06:39.845Z,21.68
2022-07-29T09:09:10.113Z,21.65
2022-07-29T09:11:39.617Z,21.58
2022-07-29T09:14:07.581Z,21.54
2022-07-29T09:16:54.342Z,21.50
2022-07-29T09:19:25.069Z,21.45
2022-07-29T09:21:59.830Z,21.42
2022-07-29T09:24:44.968Z,21.38
2022-07-29T09:27:23.263Z,21.35
2022-07-29T09:29:59.541Z,21.30
2022-07-29T09:32:28.294Z,21.24
2022-07-29T09:35:21.941Z,21.16
2022-07-29T09:37:50.473Z,21.13
2022-07-29T09:40:20.882Z,21.11
2022-07-29T09:42:50.487Z,21.07
2022-07-29T09:45:29.449Z,21.03
2022-07-29T09:47:59.938Z,20.99
2022-07-29T09:50:37.856Z,20.93
2022-07-29T09:53:06.094Z,20.91
2022-07-29T09:55:34.330Z,20.88
2022-07-29T09:58:19.288Z,20.84
2022-07-29T10:00:48.579Z,20.80
2022-07-29T10:03:17.754Z,20.81
2022-07-29T10:05:46.413Z,20.82
2022-07-29T10:08:14.695Z,20.85
2022-07-29T10:10:46.114Z,20.87
2022-07-29T10:13:16.631Z,20.90
2022-07-29T10:15:47.287Z,20.95
2022-07-29T10:18:18.275Z,21.02
2022-07-29T10:20:47.210Z,21.13
2022-07-29T10:23:15.337Z,21.24
2022-07-29T10:25:46.341Z,21.36
2022-07-29T10:28:16.678Z,21.47
2022-07-29T10:30:48.426Z,21.65
2022-07-29T10:33:43.319Z,21.97
2022-07-29T10:36:25.763Z,22.36
2022-07-29T10:39:05.063Z,22.63
2022-07-29T10:42:11.955Z,22.82
2022-07-29T10:44:43.767Z,22.98
2022-07-29T10:47:24.435Z,23.14
2022-07-29T10:50:02.500Z,23.24
2022-07-29T10:52:55.322Z,23.42
2022-07-29T10:55:35.944Z,23.67
2022-07-29T10:58:15.562Z,23.81
2022-07-29T11:00:46.723Z,23.92
2022-07-29T11:07:08.883Z,24.04
2022-07-29T11:09:38.425Z,24.09
2022-07-29T11:12:46.803Z,24.20
2022-07-29T11:15:19.843Z,24.34
2022-07-29T11:18:15.003Z,24.49
2022-07-29T11:20:46.704Z,24.65
2022-07-29T11:23:26.038Z,24.75
2022-07-29T11:26:18.524Z,24.90
2022-07-29T11:28:53.584Z,25.16
2022-07-29T11:31:39.260Z,25.42
2022-07-29T11:37:27.751Z,25.85
2022-07-29T11:40:19.968Z,26.01
2022-07-29T11:42:51.921Z,26.07
2022-07-29T11:45:42.916Z,26.22
2022-07-29T11:48:29.753Z,26.35
2022-07-29T11:51:01.081Z,26.53
2022-07-29T11:56:25.562Z,26.80
2022-07-29T11:59:05.144Z,26.92
2022-07-29T12:01:36.500Z,26.96
2022-07-29T12:04:06.888Z,26.94
2022-07-29T12:06:35.954Z,26.90
2022-07-29T12:09:14.619Z,26.92
2022-07-29T12:11:42.771Z,27.00
2022-07-29T12:14:29.107Z,27.11
2022-07-29T12:16:57.634Z,27.25
2022-07-29T12:19:26.894Z,27.38
2022-07-29T12:21:59.729Z,27.46
2022-07-29T12:24:44.900Z,27.54
2022-07-29T12:27:13.875Z,27.61
2022-07-29T12:29:42.900Z,27.62
2022-07-29T12:32:19.858Z,27.64
2022-07-29T12:34:48.534Z,27.74
2022-07-29T12:37:16.623Z,27.81
2022-07-29T12:39:46.310Z,27.93
2022-07-29T12:42:15.210Z,28.03
2022-07-29T12:44:50.752Z,28.01
2022-07-29T12:47:20.073Z,28.03
2022-07-29T12:49:48.635Z,27.96
2022-07-29T12:52:27.001Z,28.02
2022-07-29T12:54:56.370Z,28.20
2022-07-29T12:57:24.933Z,28.27
2022-07-29T13:00:10.224Z,28.41
2022-07-29T13:02:38.327Z,28.45
2022-07-29T13:05:09.242Z,28.40
2022-07-29T13:07:54.276Z,28.36
2022-07-29T13:10:26.869Z,28.37
2022-07-29T13:13:06.334Z,28.32
2022-07-29T13:15:34.903Z,28.38
2022-07-29T13:18:03.165Z,28.52
2022-07-29T13:20:31.772Z,28.72
2022-07-29T13:23:00.727Z,28.95
2022-07-29T13:25:32.675Z,29.16
2022-07-29T13:28:01.382Z,29.08
2022-07-29T13:30:31.212Z,29.10
2022-07-29T13:32:59.145Z,29.19
2022-07-29T13:35:29.487Z,29.39
2022-07-29T13:37:57.551Z,29.57
2022-07-29T13:40:25.684Z,29.70
2022-07-29T13:42:54.964Z,29.74
2022-07-29T13:45:23.159Z,29.74
2022-07-29T13:47:51.039Z,29.44
2022-07-29T13:50:18.980Z,29.43
2022-07-29T13:52:49.047Z,29.67
2022-07-29T13:55:16.941Z,29.96
2022-07-29T13:57:44.890Z,30.15
2022-07-29T14:00:16.039Z,30.14
2022-07-29T14:02:44.162Z,29.95
2022-07-29T14:05:12.132Z,29.91
2022-07-29T14:07:40.744Z,30.09
2022-07-29T14:10:09.817Z,30.06
2022-07-29T14:12:37.804Z,30.24
2022-07-29T14:15:06.858Z,30.47
2022-07-29T14:17:36.373Z,30.58
2022-07-29T14:20:04.672Z,30.64
2022-07-29T14:22:32.648Z,30.40
2022-07-29T14:25:01.485Z,30.31
2022-07-29T14:27:38.737Z,30.34
2022-07-29T14:30:08.429Z,30.09
2022-07-29T14:32:37.826Z,29.90
2022-07-29T14:35:06.670Z,29.82
2022-07-29T14:37:39.761Z,30.07
2022-07-29T14:40:10.183Z,30.42
2022-07-29T14:42:38.495Z,30.73
2022-07-29T14:45:07.981Z,31.13
2022-07-29T14:47:37.787Z,31.21
2022-07-29T14:50:07.473Z,30.74
2022-07-29T14:52:35.836Z,30.18
2022-07-29T14:55:04.322Z,29.87
2022-07-29T14:57:32.930Z,29.73
2022-07-29T15:00:00.852Z,29.71
2022-07-29T15:02:52.229Z,29.73
2022-07-29T15:05:18.322Z,29.67
2022-07-29T15:07:46.156Z,29.85
2022-07-29T15:10:14.801Z,29.91
2022-07-29T15:12:43.549Z,29.88
2022-07-29T15:15:11.723Z,29.92
2022-07-29T15:17:39.650Z,30.00
2022-07-29T15:20:08.415Z,29.95
2022-07-29T15:22:39.040Z,29.84
2022-07-29T15:25:08.043Z,29.80
2022-07-29T15:27:35.988Z,29.80
2022-07-29T15:30:04.086Z,29.89
2022-07-29T15:32:32.073Z,30.03
2022-07-29T15:35:00.100Z,30.27
2022-07-29T15:37:29.291Z,30.59
2022-07-29T15:40:18.289Z,30.94
2022-07-29T15:42:46.214Z,31.07
2022-07-29T15:45:14.143Z,31.01
2022-07-29T15:47:42.174Z,30.96
2022-07-29T15:50:15.664Z,31.01
2022-07-29T15:52:43.810Z,30.99
2022-07-29T15:55:11.774Z,30.96
2022-07-29T15:57:41.547Z,30.91
2022-07-29T16:00:10.794Z,30.85
2022-07-29T16:02:38.709Z,30.66
2022-07-29T16:05:09.451Z,30.51
2022-07-29T16:07:37.683Z,30.36
2022-07-29T16:10:07.929Z,30.16
2022-07-29T16:12:35.877Z,29.89
2022-07-29T16:15:09.761Z,29.53
2022-07-29T16:17:38.875Z,29.25
2022-07-29T16:20:08.217Z,29.17
2022-07-29T16:22:36.243Z,29.20
2022-07-29T16:25:04.253Z,29.13
2022-07-29T16:27:37.934Z,29.02
2022-07-29T16:30:10.007Z,28.88
2022-07-29T16:32:38.328Z,28.70
2022-07-29T16:35:07.103Z,28.54
2022-07-29T16:37:36.557Z,28.32
2022-07-29T16:40:06.147Z,28.15
2022-07-29T16:42:46.439Z,27.98
2022-07-29T16:45:16.569Z,27.80
2022-07-29T16:47:46.175Z,27.64
2022-07-29T16:50:14.095Z,27.58
2022-07-29T16:52:42.147Z,27.51
2022-07-29T16:55:10.322Z,27.41
2022-07-29T16:57:38.159Z,27.34
2022-07-29T17:00:07.762Z,27.24
2022-07-29T17:02:38.640Z,27.16
2022-07-29T17:05:07.855Z,27.04
2022-07-29T17:07:35.847Z,26.96
2022-07-29T17:10:05.132Z,26.90
2022-07-29T17:12:33.206Z,26.85
2022-07-29T17:15:01.117Z,26.79
2022-07-29T17:17:39.096Z,26.74
2022-07-29T17:20:17.580Z,26.72
2022-07-29T17:22:45.672Z,26.65
2022-07-29T17:25:21.073Z,26.60
2022-07-29T17:27:50.579Z,26.53
2022-07-29T17:30:19.007Z,26.48
2022-07-29T17:32:47.014Z,26.44
2022-07-29T17:35:33.831Z,26.39
2022-07-29T17:38:01.938Z,26.33
2022-07-29T17:40:29.816Z,26.26
2022-07-29T17:42:57.828Z,26.22
2022-07-29T17:45:26.210Z,26.16
2022-07-29T17:48:14.146Z,26.11
2022-07-29T17:50:43.444Z,26.07
2022-07-29T17:53:16.347Z,25.98
2022-07-29T17:55:45.710Z,25.93
2022-07-29T17:58:13.783Z,25.85
2022-07-29T18:00:41.786Z,25.77
2022-07-29T18:03:10.058Z,25.71
2022-07-29T18:05:38.181Z,25.61
2022-07-29T18:08:07.614Z,25.58
2022-07-29T18:10:35.679Z,25.53
2022-07-29T18:13:04.046Z,25.47
2022-07-29T18:15:32.026Z,25.41
2022-07-29T18:17:59.981Z,25.34
2022-07-29T18:20:28.169Z,25.28
2022-07-29T18:22:56.090Z,25.20
2022-07-29T18:25:25.708Z,25.12
2022-07-29T18:27:58.420Z,25.06
2022-07-29T18:30:28.248Z,25.01
2022-07-29T18:33:19.871Z,24.97
2022-07-29T18:35:44.930Z,24.90
2022-07-29T18:38:12.932Z,24.86
2022-07-29T18:40:42.958Z,24.81
2022-07-29T18:43:10.905Z,24.77
2022-07-29T18:45:39.594Z,24.73
2022-07-29T18:48:11.853Z,24.68
2022-07-29T18:50:41.362Z,24.63
2022-07-29T18:53:09.692Z,24.58
2022-07-29T18:55:37.569Z,24.52
2022-07-29T18:58:06.971Z,24.47
2022-07-29T19:00:35.410Z,24.44
2022-07-29T19:03:04.205Z,24.41
2022-07-29T19:05:32.633Z,24.36
2022-07-29T19:08:00.467Z,24.29
2022-07-29T19:10:28.381Z,24.18
2022-07-29T19:12:56.804Z,24.08
2022-07-29T19:15:26.377Z,23.95
2022-07-29T19:17:57.786Z,23.82
2022-07-29T19:20:28.666Z,23.72
2022-07-29T19:22:56.833Z,23.63
2022-07-29T19:25:25.028Z,23.56
2022-07-29T19:27:52.981Z,23.43
2022-07-29T19:30:21.321Z,23.23
2022-07-29T19:32:51.104Z,23.02
2022-07-29T19:35:25.609Z,22.84
2022-07-29T19:37:54.563Z,22.56
2022-07-29T19:40:23.103Z,22.34
2022-07-29T19:42:51.738Z,22.10
2022-07-29T19:45:20.545Z,21.83
2022-07-29T19:47:48.781Z,21.60
2022-07-29T19:50:18.114Z,21.41
2022-07-29T19:52:47.078Z,21.22
2022-07-29T19:55:15.619Z,21.10
2022-07-29T19:57:43.952Z,21.03
2022-07-29T20:00:14.150Z,20.96
2022-07-29T20:02:43.249Z,20.93
2022-07-29T20:05:12.298Z,20.87
2022-07-29T20:07:41.742Z,20.78
2022-07-29T20:10:11.034Z,20.70
2022-07-29T20:12:39.037Z,20.62
2022-07-29T20:15:09.294Z,20.57
2022-07-29T20:17:44.305Z,20.50
2022-07-29T20:20:12.791Z,20.44
2022-07-29T20:22:42.134Z,20.40
2022-07-29T20:25:11.936Z,20.36
2022-07-29T20:27:40.606Z,20.29
2022-07-29T20:30:13.356Z,20.25
2022-07-29T20:32:41.907Z,20.20
2022-07-29T20:35:12.012Z,20.15
2022-07-29T20:37:55.803Z,20.09
2022-07-29T20:40:24.271Z,20.07
2022-07-29T20:42:52.109Z,20.00
2022-07-29T20:45:20.093Z,19.93
2022-07-29T20:47:48.047Z,19.86
2022-07-29T20:50:16.038Z,19.83
2022-07-29T20:52:45.252Z,19.85
2022-07-29T20:55:13.163Z,19.89
2022-07-29T20:57:41.234Z,19.90
2022-07-29T21:00:10.407Z,19.91
2022-07-29T21:02:38.396Z,19.90
2022-07-29T21:05:07.271Z,19.87
2022-07-29T21:07:35.313Z,19.84
2022-07-29T21:10:05.915Z,19.79
2022-07-29T21:12:33.845Z,19.76
2022-07-29T21:15:05.739Z,19.73
2022-07-29T21:17:35.942Z,19.64
2022-07-29T21:20:05.448Z,19.58
2022-07-29T21:22:33.297Z,19.56
2022-07-29T21:25:01.740Z,19.56
2022-07-29T21:27:48.421Z,19.55
2022-07-29T21:30:16.376Z,19.54
2022-07-29T21:32:44.359Z,19.50
2022-07-29T21:35:30.321Z,19.47
2022-07-29T21:38:00.883Z,19.43
2022-07-29T21:40:29.963Z,19.41
2022-07-29T21:42:59.259Z,19.38
2022-07-29T21:45:27.400Z,19.38
2022-07-29T21:47:55.308Z,19.34
2022-07-29T21:50:23.227Z,19.35
2022-07-29T21:52:51.115Z,19.36
2022-07-29T21:55:19.378Z,19.30
2022-07-29T21:57:48.990Z,19.25
2022-07-29T22:00:18.475Z,19.22
2022-07-29T22:06:35.409Z,19.18
2022-07-29T22:09:03.318Z,19.15
2022-07-29T22:11:31.501Z,19.14
2022-07-29T22:13:59.846Z,19.12
2022-07-29T22:16:27.762Z,19.08
2022-07-29T22:18:55.685Z,19.06
2022-07-29T22:21:23.563Z,19.04
2022-07-29T22:23:52.849Z,19.06
2022-07-29T22:26:20.757Z,19.06
2022-07-29T22:28:48.572Z,19.05
2022-07-29T22:31:16.986Z,19.05
2022-07-29T22:33:44.936Z,19.04
2022-07-29T22:36:12.981Z,19.07
2022-07-29T22:38:40.891Z,19.09
2022-07-29T22:41:10.214Z,19.07
2022-07-29T22:43:43.488Z,19.01
2022-07-29T22:46:12.054Z,19.00
2022-07-29T22:48:40.099Z,19.00
2022-07-29T22:51:08.271Z,18.98
2022-07-29T22:53:37.021Z,18.95
2022-07-29T22:56:05.642Z,18.96
2022-07-29T22:58:34.948Z,18.98
2022-07-29T23:01:02.885Z,18.97
2022-07-29T23:03:30.911Z,18.97
2022-07-29T23:05:58.838Z,18.96
2022-07-29T23:08:26.719Z,18.96
2022-07-29T23:10:54.602Z,18.95
2022-07-29T23:13:22.580Z,18.94
2022-07-29T23:15:51.813Z,18.93
2022-07-29T23:18:20.022Z,18.92
2022-07-29T23:20:48.165Z,18.91
2022-07-29T23:23:16.052Z,18.92
2022-07-29T23:25:43.928Z,18.90
2022-07-29T23:28:13.237Z,18.85
2022-07-29T23:30:41.715Z,18.81
2022-07-29T23:33:11.059Z,18.74
2022-07-29T23:35:39.073Z,18.68
2022-07-29T23:38:07.352Z,18.63
2022-07-29T23:40:35.324Z,18.59
2022-07-29T23:43:03.164Z,18.54
2022-07-29T23:45:44.631Z,18.51
2022-07-29T23:48:15.041Z,18.47
2022-07-29T23:50:43.655Z,18.45
2022-07-29T23:53:12.066Z,18.43
2022-07-29T23:55:39.978Z,18.42
2022-07-29T23:58:07.874Z,18.41
